createdAt,value
2024-03-07T00:00:55.188Z,26.94
2024-03-07T00:02:08.371Z,28.79
2024-03-07T00:03:11.261Z,25.09
2024-03-07T00:04:14.302Z,24.81
2024-03-07T00:05:21.283Z,24.58
2024-03-07T00:06:24.148Z,24.67
2024-03-07T00:07:26.964Z,25.16
2024-03-07T00:08:32.777Z,25.19
2024-03-07T00:09:37.418Z,25.22
2024-03-07T00:10:40.315Z,25.52
2024-03-07T00:11:43.260Z,25.33
2024-03-07T00:12:46.872Z,26.67
2024-03-07T00:13:50.100Z,25.88
2024-03-07T00:14:53.051Z,25.22
2024-03-07T00:15:56.051Z,25.55
2024-03-07T00:17:02.530Z,25.16
2024-03-07T00:18:07.177Z,25.05
2024-03-07T00:19:10.094Z,26.02
2024-03-07T00:20:17.275Z,26.11
2024-03-07T00:21:20.363Z,25.20
2024-03-07T00:22:23.967Z,25.51
2024-03-07T00:23:28.022Z,25.32
2024-03-07T00:24:30.860Z,26.11
2024-03-07T00:25:33.739Z,26.28
2024-03-07T00:26:37.501Z,26.11
2024-03-07T00:27:40.424Z,27.62
2024-03-07T00:28:43.728Z,28.84
2024-03-07T00:29:53.946Z,27.73
2024-03-07T00:30:56.959Z,26.31
2024-03-07T00:31:59.904Z,26.75
2024-03-07T00:33:02.956Z,26.53
2024-03-07T00:34:13.093Z,26.41
2024-03-07T00:35:23.062Z,25.91
2024-03-07T00:36:26.774Z,27.01
2024-03-07T00:37:30.117Z,28.85
2024-03-07T00:38:32.996Z,35.80
2024-03-07T00:39:36.063Z,29.70
2024-03-07T00:40:39.537Z,27.03
2024-03-07T00:41:42.953Z,26.95
2024-03-07T00:42:45.950Z,27.16
2024-03-07T00:43:48.845Z,26.59
2024-03-07T00:44:51.845Z,26.64
2024-03-07T00:45:55.461Z,27.04
2024-03-07T00:46:58.463Z,26.45
2024-03-07T00:48:02.645Z,25.97
2024-03-07T00:49:06.352Z,25.86
2024-03-07T00:50:10.089Z,25.33
2024-03-07T00:51:13.182Z,24.11
2024-03-07T00:52:16.687Z,25.64
2024-03-07T00:53:19.574Z,26.27
2024-03-07T00:54:22.558Z,27.37
2024-03-07T00:55:25.420Z,25.56
2024-03-07T00:56:29.735Z,25.95
2024-03-07T00:57:32.678Z,25.73
2024-03-07T00:58:36.569Z,25.89
2024-03-07T00:59:40.148Z,26.19
2024-03-07T01:00:44.188Z,26.00
2024-03-07T01:01:47.102Z,27.07
2024-03-07T01:02:50.198Z,26.38
2024-03-07T01:03:53.147Z,26.18
2024-03-07T01:04:56.164Z,25.50
2024-03-07T01:05:59.130Z,26.99
2024-03-07T01:07:02.466Z,25.15
2024-03-07T01:08:06.838Z,25.31
2024-03-07T01:09:15.231Z,26.95
2024-03-07T01:10:18.271Z,25.74
2024-03-07T01:11:21.434Z,26.60
2024-03-07T01:12:28.441Z,26.23
2024-03-07T01:13:31.406Z,25.57
2024-03-07T01:14:34.527Z,25.74
2024-03-07T01:15:37.578Z,26.72
2024-03-07T01:16:40.635Z,26.04
2024-03-07T01:17:43.578Z,26.79
2024-03-07T01:18:46.638Z,26.28
2024-03-07T01:19:49.647Z,26.90
2024-03-07T01:20:52.684Z,27.18
2024-03-07T01:21:55.606Z,26.51
2024-03-07T01:22:58.524Z,25.49
2024-03-07T01:24:02.593Z,25.30
2024-03-07T01:25:06.237Z,26.98
2024-03-07T01:26:09.624Z,25.98
2024-03-07T01:27:12.542Z,27.07
2024-03-07T01:28:16.023Z,26.15
2024-03-07T01:29:19.140Z,26.13
2024-03-07T01:30:24.472Z,26.44
2024-03-07T01:31:27.386Z,26.85
2024-03-07T01:32:30.579Z,26.82
2024-03-07T01:33:33.620Z,26.48
2024-03-07T01:34:36.569Z,27.22
2024-03-07T01:35:39.695Z,27.42
2024-03-07T01:36:43.004Z,27.48
2024-03-07T01:37:45.854Z,25.81
2024-03-07T01:38:48.933Z,25.92
2024-03-07T01:39:52.351Z,26.40
2024-03-07T01:40:56.020Z,26.09
2024-03-07T01:41:59.009Z,24.48
2024-03-07T01:43:06.681Z,26.17
2024-03-07T01:44:10.114Z,26.07
2024-03-07T01:45:12.994Z,26.93
2024-03-07T01:46:16.020Z,26.87
2024-03-07T01:47:19.360Z,26.91
2024-03-07T01:48:28.026Z,26.35
2024-03-07T01:49:32.083Z,26.01
2024-03-07T01:50:39.617Z,27.63
2024-03-07T01:51:44.565Z,27.35
2024-03-07T01:52:47.488Z,27.56
2024-03-07T01:53:50.557Z,28.09
2024-03-07T01:54:53.784Z,27.51
2024-03-07T01:55:58.489Z,26.05
2024-03-07T01:57:03.126Z,27.07
2024-03-07T01:58:11.926Z,26.25
2024-03-07T01:59:16.444Z,25.72
2024-03-07T02:00:19.699Z,25.78
2024-03-07T02:01:23.062Z,25.76
2024-03-07T02:02:26.143Z,25.52
2024-03-07T02:03:29.205Z,25.17
2024-03-07T02:04:32.339Z,25.63
2024-03-07T02:05:35.408Z,26.22
2024-03-07T02:06:38.729Z,26.19
2024-03-07T02:07:41.820Z,25.04
2024-03-07T02:08:44.695Z,27.04
2024-03-07T02:09:47.646Z,26.60
2024-03-07T02:10:50.762Z,26.67
2024-03-07T02:11:53.935Z,25.11
2024-03-07T02:12:57.036Z,24.95
2024-03-07T02:14:00.343Z,24.39
2024-03-07T02:15:03.961Z,25.11
2024-03-07T02:16:08.607Z,25.23
2024-03-07T02:17:11.670Z,24.98
2024-03-07T02:18:15.280Z,24.77
2024-03-07T02:19:19.041Z,26.14
2024-03-07T02:20:22.097Z,25.71
2024-03-07T02:21:24.964Z,24.99
2024-03-07T02:22:28.390Z,25.74
2024-03-07T02:23:31.227Z,25.84
2024-03-07T02:24:34.091Z,25.39
2024-03-07T02:25:38.631Z,26.04
2024-03-07T02:26:41.623Z,25.04
2024-03-07T02:27:46.598Z,24.69
2024-03-07T02:28:50.010Z,25.10
2024-03-07T02:29:53.059Z,24.09
2024-03-07T02:30:55.970Z,24.45
2024-03-07T02:31:58.842Z,25.19
2024-03-07T02:33:08.480Z,24.00
2024-03-07T02:34:11.710Z,23.75
2024-03-07T02:35:16.665Z,24.64
2024-03-07T02:36:19.772Z,24.51
2024-03-07T02:37:22.628Z,24.75
2024-03-07T02:38:25.694Z,24.06
2024-03-07T02:39:28.664Z,24.08
2024-03-07T02:40:32.538Z,23.87
2024-03-07T02:41:35.525Z,24.24
2024-03-07T02:42:38.457Z,24.36
2024-03-07T02:43:41.554Z,23.85
2024-03-07T02:44:45.723Z,24.44
2024-03-07T02:45:48.592Z,24.93
2024-03-07T02:46:51.456Z,23.93
2024-03-07T02:47:55.366Z,23.75
2024-03-07T02:48:58.710Z,24.90
2024-03-07T02:50:01.591Z,23.93
2024-03-07T02:51:06.945Z,22.49
2024-03-07T02:52:10.039Z,22.09
2024-03-07T02:53:12.922Z,22.46
2024-03-07T02:54:15.870Z,21.66
2024-03-07T02:55:20.040Z,22.52
2024-03-07T02:56:23.031Z,21.60
2024-03-07T02:57:25.953Z,21.32
2024-03-07T02:58:28.810Z,21.67
2024-03-07T02:59:31.802Z,21.97
2024-03-07T03:00:35.971Z,22.00
2024-03-07T03:01:38.854Z,21.97
2024-03-07T03:02:42.676Z,21.79
2024-03-07T03:03:45.828Z,23.39
2024-03-07T03:04:48.924Z,22.76
2024-03-07T03:05:51.994Z,22.18
2024-03-07T03:06:54.898Z,21.76
2024-03-07T03:07:57.783Z,21.98
2024-03-07T03:09:01.203Z,22.13
2024-03-07T03:10:08.623Z,22.37
2024-03-07T03:11:14.975Z,21.46
2024-03-07T03:12:18.345Z,20.91
2024-03-07T03:13:21.737Z,20.72
2024-03-07T03:14:24.718Z,21.03
2024-03-07T03:15:27.939Z,20.27
2024-03-07T03:16:43.464Z,20.02
2024-03-07T03:17:54.056Z,20.25
2024-03-07T03:18:57.278Z,21.22
2024-03-07T03:20:00.228Z,20.80
2024-03-07T03:21:04.269Z,20.33
2024-03-07T03:22:10.111Z,21.17
2024-03-07T03:23:20.429Z,21.42
2024-03-07T03:24:24.890Z,21.24
2024-03-07T03:25:27.910Z,20.93
2024-03-07T03:26:32.618Z,21.65
2024-03-07T03:27:35.527Z,20.15
2024-03-07T03:28:38.492Z,20.43
2024-03-07T03:29:41.800Z,19.26
2024-03-07T03:30:45.119Z,21.16
2024-03-07T03:31:48.033Z,20.57
2024-03-07T03:32:51.065Z,21.33
2024-03-07T03:33:54.075Z,21.71
2024-03-07T03:34:57.163Z,21.68
2024-03-07T03:36:00.298Z,20.83
2024-03-07T03:37:03.289Z,20.67
2024-03-07T03:38:08.139Z,19.18
2024-03-07T03:39:14.360Z,19.31
2024-03-07T03:40:17.397Z,19.68
2024-03-07T03:41:20.536Z,20.06
2024-03-07T03:42:23.847Z,20.47
2024-03-07T03:43:26.670Z,21.13
2024-03-07T03:44:29.577Z,20.55
2024-03-07T03:45:35.042Z,20.07
2024-03-07T03:46:38.043Z,20.83
2024-03-07T03:47:42.483Z,20.64
2024-03-07T03:48:45.386Z,21.44
2024-03-07T03:49:48.376Z,20.36
2024-03-07T03:50:51.267Z,21.03
2024-03-07T03:51:54.390Z,20.78
2024-03-07T03:52:58.512Z,20.20
2024-03-07T03:54:01.470Z,20.02
2024-03-07T03:55:06.732Z,19.75
2024-03-07T03:56:13.231Z,20.34
2024-03-07T03:57:19.788Z,20.71
2024-03-07T03:58:22.743Z,20.79
2024-03-07T03:59:25.701Z,20.22
2024-03-07T04:00:29.425Z,19.64
2024-03-07T04:01:32.393Z,19.88
2024-03-07T04:02:35.333Z,18.42
2024-03-07T04:03:38.257Z,18.91
2024-03-07T04:04:41.652Z,19.37
2024-03-07T04:05:44.658Z,19.85
2024-03-07T04:06:47.719Z,19.22
2024-03-07T04:07:50.763Z,18.38
2024-03-07T04:08:53.691Z,18.66
2024-03-07T04:09:56.777Z,19.07
2024-03-07T04:10:59.621Z,18.42
2024-03-07T04:12:02.635Z,19.25
2024-03-07T04:13:05.755Z,19.23
2024-03-07T04:14:09.293Z,19.36
2024-03-07T04:15:17.738Z,19.55
2024-03-07T04:16:21.129Z,20.02
2024-03-07T04:17:24.130Z,20.02
2024-03-07T04:18:27.820Z,20.15
2024-03-07T04:19:32.035Z,20.76
2024-03-07T04:20:34.947Z,21.62
2024-03-07T04:21:38.528Z,23.41
2024-03-07T04:22:41.704Z,27.88
2024-03-07T04:23:47.824Z,24.49
2024-03-07T04:24:54.924Z,22.59
2024-03-07T04:25:57.891Z,19.26
2024-03-07T04:27:01.653Z,19.16
2024-03-07T04:28:05.647Z,23.68
2024-03-07T04:29:12.341Z,27.80
2024-03-07T04:30:17.766Z,29.70
2024-03-07T04:31:20.991Z,33.50
2024-03-07T04:32:24.414Z,34.63
2024-03-07T04:33:27.920Z,27.69
2024-03-07T04:34:32.095Z,30.14
2024-03-07T04:35:35.119Z,29.09
2024-03-07T04:36:37.958Z,28.85
2024-03-07T04:37:42.077Z,33.42
2024-03-07T04:38:46.384Z,34.64
2024-03-07T04:39:49.594Z,30.18
2024-03-07T04:40:52.432Z,27.79
2024-03-07T04:41:58.064Z,24.95
2024-03-07T04:43:01.414Z,22.35
2024-03-07T04:44:04.402Z,21.92
2024-03-07T04:45:08.023Z,21.04
2024-03-07T04:46:11.384Z,22.39
2024-03-07T04:47:14.274Z,22.30
2024-03-07T04:48:17.391Z,20.85
2024-03-07T04:49:20.555Z,20.55
2024-03-07T04:50:23.631Z,23.33
2024-03-07T04:51:26.541Z,24.56
2024-03-07T04:52:29.558Z,24.08
2024-03-07T04:53:32.963Z,26.56
2024-03-07T04:54:35.918Z,28.40
2024-03-07T04:55:39.017Z,29.71
2024-03-07T04:56:42.319Z,30.08
2024-03-07T04:57:45.625Z,26.36
2024-03-07T04:58:50.942Z,25.52
2024-03-07T04:59:53.812Z,20.81
2024-03-07T05:00:56.863Z,19.16
2024-03-07T05:01:59.790Z,18.58
2024-03-07T05:03:03.100Z,20.83
2024-03-07T05:04:06.954Z,22.17
2024-03-07T05:05:10.299Z,21.11
2024-03-07T05:06:14.065Z,20.29
2024-03-07T05:07:16.967Z,20.89
2024-03-07T05:08:20.126Z,19.68
2024-03-07T05:09:24.072Z,19.94
2024-03-07T05:10:30.576Z,19.40
2024-03-07T05:11:37.543Z,20.54
2024-03-07T05:12:40.443Z,21.51
2024-03-07T05:13:43.642Z,21.64
2024-03-07T05:14:46.722Z,21.71
2024-03-07T05:15:51.840Z,22.02
2024-03-07T05:17:06.876Z,21.28
2024-03-07T05:18:11.043Z,20.45
2024-03-07T05:19:14.304Z,19.88
2024-03-07T05:20:17.305Z,19.23
2024-03-07T05:21:39.079Z,21.40
2024-03-07T05:22:46.174Z,20.30
2024-03-07T05:23:50.129Z,20.16
2024-03-07T05:24:53.213Z,19.95
2024-03-07T05:25:56.042Z,20.74
2024-03-07T05:26:59.829Z,20.75
2024-03-07T05:28:03.778Z,20.18
2024-03-07T05:29:09.463Z,20.00
2024-03-07T05:30:14.335Z,20.46
2024-03-07T05:31:19.402Z,20.92
2024-03-07T05:32:27.782Z,20.54
2024-03-07T05:33:31.196Z,21.30
2024-03-07T05:34:35.098Z,21.80
2024-03-07T05:35:38.262Z,22.17
2024-03-07T05:36:47.184Z,21.10
2024-03-07T05:37:51.813Z,20.01
2024-03-07T05:38:55.408Z,20.26
2024-03-07T05:39:58.546Z,20.86
2024-03-07T05:41:02.184Z,21.65
2024-03-07T05:42:05.282Z,21.28
2024-03-07T05:43:08.360Z,21.83
2024-03-07T05:44:11.427Z,22.04
2024-03-07T05:45:16.204Z,21.57
2024-03-07T05:46:19.252Z,21.25
2024-03-07T05:47:22.959Z,20.11
2024-03-07T05:48:26.211Z,19.55
2024-03-07T05:49:29.203Z,19.38
2024-03-07T05:50:32.045Z,19.17
2024-03-07T05:51:35.191Z,17.94
2024-03-07T05:52:38.024Z,19.48
2024-03-07T05:53:41.784Z,19.71
2024-03-07T05:54:45.485Z,20.61
2024-03-07T05:55:48.920Z,21.74
2024-03-07T05:56:51.995Z,21.38
2024-03-07T05:57:54.922Z,21.68
2024-03-07T05:58:57.766Z,20.21
2024-03-07T06:00:00.693Z,20.40
2024-03-07T06:01:03.932Z,20.40
2024-03-07T06:02:07.016Z,20.98
2024-03-07T06:03:10.081Z,20.09
2024-03-07T06:04:12.966Z,20.95
2024-03-07T06:05:17.413Z,20.88
2024-03-07T06:06:22.532Z,21.23
2024-03-07T06:07:25.813Z,21.35
2024-03-07T06:08:28.708Z,21.66
2024-03-07T06:09:31.700Z,21.28
2024-03-07T06:12:34.848Z,20.06
2024-03-07T06:13:37.846Z,20.87
2024-03-07T06:14:40.836Z,21.78
2024-03-07T06:15:45.771Z,21.04
2024-03-07T06:16:48.872Z,21.50
2024-03-07T06:17:52.067Z,22.15
2024-03-07T06:18:55.166Z,21.87
2024-03-07T06:19:58.067Z,21.69
2024-03-07T06:21:01.101Z,20.55
2024-03-07T06:22:07.320Z,21.73
2024-03-07T06:23:13.419Z,21.37
2024-03-07T06:24:18.861Z,21.56
2024-03-07T06:25:34.611Z,21.73
2024-03-07T06:26:50.969Z,19.61
2024-03-07T06:27:53.885Z,20.11
2024-03-07T06:28:57.354Z,19.51
2024-03-07T06:30:00.278Z,19.20
2024-03-07T06:31:08.857Z,19.95
2024-03-07T06:32:13.042Z,19.91
2024-03-07T06:33:18.435Z,19.78
2024-03-07T06:34:23.180Z,21.07
2024-03-07T06:35:26.096Z,19.61
2024-03-07T06:36:29.333Z,20.58
2024-03-07T06:37:32.764Z,20.70
2024-03-07T06:38:36.424Z,20.77
2024-03-07T06:39:39.299Z,21.71
2024-03-07T06:40:45.741Z,20.56
2024-03-07T06:41:48.714Z,20.06
2024-03-07T06:42:53.569Z,20.88
2024-03-07T06:43:56.901Z,20.01
2024-03-07T06:44:59.952Z,22.22
2024-03-07T06:46:03.395Z,20.96
2024-03-07T06:47:06.685Z,21.64
2024-03-07T06:48:09.989Z,21.01
2024-03-07T06:49:13.021Z,21.35
2024-03-07T06:50:27.380Z,21.75
2024-03-07T06:51:38.372Z,19.41
2024-03-07T06:52:41.703Z,20.38
2024-03-07T06:53:47.833Z,20.57
2024-03-07T06:54:50.793Z,20.38
2024-03-07T06:55:54.435Z,20.35
2024-03-07T06:56:57.656Z,20.40
2024-03-07T06:58:01.316Z,21.64
2024-03-07T06:59:06.123Z,21.63
2024-03-07T07:00:12.170Z,20.46
2024-03-07T07:01:17.307Z,20.76
2024-03-07T07:02:21.003Z,20.40
2024-03-07T07:03:25.165Z,21.54
2024-03-07T07:04:33.211Z,21.30
2024-03-07T07:05:36.744Z,21.36
2024-03-07T07:06:39.850Z,22.44
2024-03-07T07:07:42.891Z,21.80
2024-03-07T07:08:46.416Z,21.19
2024-03-07T07:09:52.823Z,21.40
2024-03-07T07:10:55.890Z,20.93
2024-03-07T07:11:58.862Z,21.48
2024-03-07T07:13:02.095Z,22.97
2024-03-07T07:14:04.942Z,22.44
2024-03-07T07:15:08.785Z,21.26
2024-03-07T07:16:11.712Z,21.12
2024-03-07T07:17:15.009Z,21.86
2024-03-07T07:18:18.322Z,22.27
2024-03-07T07:19:21.462Z,21.94
2024-03-07T07:20:25.391Z,22.19
2024-03-07T07:21:28.535Z,21.11
2024-03-07T07:22:34.123Z,19.73
2024-03-07T07:23:38.505Z,20.55
2024-03-07T07:24:41.521Z,21.08
2024-03-07T07:25:44.510Z,20.53
2024-03-07T07:26:47.668Z,21.17
2024-03-07T07:27:52.094Z,20.80
2024-03-07T07:28:55.419Z,20.80
2024-03-07T07:29:58.845Z,20.61
2024-03-07T07:31:02.298Z,20.98
2024-03-07T07:32:05.532Z,20.89
2024-03-07T07:33:08.726Z,21.57
2024-03-07T07:34:12.302Z,22.05
2024-03-07T07:35:16.323Z,21.80
2024-03-07T07:36:19.977Z,21.54
2024-03-07T07:37:24.001Z,21.23
2024-03-07T07:38:27.430Z,21.35
2024-03-07T07:39:30.442Z,21.01
2024-03-07T07:40:34.371Z,21.18
2024-03-07T07:41:37.249Z,22.01
2024-03-07T07:42:40.651Z,20.82
2024-03-07T07:43:44.260Z,21.18
2024-03-07T07:44:47.494Z,21.70
2024-03-07T07:45:50.502Z,21.75
2024-03-07T07:46:53.347Z,22.32
2024-03-07T07:47:56.915Z,22.13
2024-03-07T07:48:59.891Z,21.35
2024-03-07T07:50:03.753Z,22.20
2024-03-07T07:51:07.105Z,21.14
2024-03-07T07:52:10.534Z,22.02
2024-03-07T07:53:13.438Z,20.73
2024-03-07T07:54:16.326Z,20.94
2024-03-07T07:55:20.771Z,21.78
2024-03-07T07:56:26.313Z,20.81
2024-03-07T07:57:30.128Z,20.32
2024-03-07T07:58:33.019Z,21.28
2024-03-07T07:59:36.556Z,22.21
2024-03-07T08:00:39.639Z,21.60
2024-03-07T08:01:42.825Z,20.56
2024-03-07T08:02:45.945Z,19.77
2024-03-07T08:03:48.968Z,19.72
2024-03-07T08:04:51.806Z,20.27
2024-03-07T08:05:55.715Z,20.82
2024-03-07T08:06:58.866Z,21.41
2024-03-07T08:08:06.596Z,21.78
2024-03-07T08:09:10.947Z,22.26
2024-03-07T08:10:14.267Z,21.54
2024-03-07T08:11:17.257Z,21.71
2024-03-07T08:12:20.468Z,20.29
2024-03-07T08:13:23.510Z,20.14
2024-03-07T08:14:30.024Z,20.95
2024-03-07T08:15:33.198Z,20.45
2024-03-07T08:16:37.458Z,19.68
2024-03-07T08:17:44.232Z,21.30
2024-03-07T08:18:47.326Z,20.85
2024-03-07T08:19:50.822Z,20.58
2024-03-07T08:20:56.437Z,20.79
2024-03-07T08:22:00.756Z,20.47
2024-03-07T08:23:03.994Z,20.34
2024-03-07T08:24:12.213Z,21.07
2024-03-07T08:25:16.129Z,20.50
2024-03-07T08:26:19.359Z,20.92
2024-03-07T08:27:22.189Z,20.19
2024-03-07T08:28:25.281Z,20.23
2024-03-07T08:29:28.719Z,20.48
2024-03-07T08:30:32.056Z,20.39
2024-03-07T08:31:34.946Z,19.96
2024-03-07T08:32:38.279Z,21.10
2024-03-07T08:33:41.470Z,21.36
2024-03-07T08:34:44.568Z,21.03
2024-03-07T08:35:47.589Z,20.26
2024-03-07T08:36:50.508Z,19.34
2024-03-07T08:37:55.230Z,19.40
2024-03-07T08:38:58.747Z,20.23
2024-03-07T08:40:05.477Z,19.33
2024-03-07T08:41:08.988Z,18.60
2024-03-07T08:42:11.861Z,19.30
2024-03-07T08:43:15.574Z,19.40
2024-03-07T08:44:18.487Z,19.27
2024-03-07T08:45:21.655Z,19.45
2024-03-07T08:46:24.707Z,19.44
2024-03-07T08:47:29.435Z,19.32
2024-03-07T08:48:32.426Z,18.97
2024-03-07T08:49:35.268Z,19.04
2024-03-07T08:50:38.934Z,18.51
2024-03-07T08:51:42.530Z,18.72
2024-03-07T08:52:47.015Z,19.33
2024-03-07T08:53:51.405Z,20.06
2024-03-07T08:54:55.177Z,18.87
2024-03-07T08:56:01.390Z,19.10
2024-03-07T08:57:06.030Z,19.62
2024-03-07T08:58:10.043Z,19.63
2024-03-07T08:59:16.895Z,19.28
2024-03-07T09:00:23.946Z,18.36
2024-03-07T09:01:27.378Z,20.19
2024-03-07T09:02:30.279Z,19.10
2024-03-07T09:03:34.413Z,18.79
2024-03-07T09:04:37.823Z,18.34
2024-03-07T09:05:41.443Z,18.68
2024-03-07T09:06:47.229Z,18.27
2024-03-07T09:07:51.354Z,17.83
2024-03-07T09:08:54.311Z,18.88
2024-03-07T09:09:58.095Z,18.28
2024-03-07T09:11:01.041Z,18.45
2024-03-07T09:12:05.085Z,18.86
2024-03-07T09:13:08.321Z,18.29
2024-03-07T09:14:11.686Z,18.07
2024-03-07T09:15:17.470Z,18.56
2024-03-07T09:16:21.076Z,19.54
2024-03-07T09:17:24.332Z,18.80
2024-03-07T09:18:27.462Z,19.07
2024-03-07T09:19:30.637Z,18.27
2024-03-07T09:20:33.589Z,18.84
2024-03-07T09:21:36.513Z,19.25
2024-03-07T09:22:39.475Z,19.65
2024-03-07T09:23:42.628Z,19.32
2024-03-07T09:24:45.699Z,19.77
2024-03-07T09:25:48.755Z,19.05
2024-03-07T09:26:53.176Z,19.08
2024-03-07T09:27:57.132Z,18.49
2024-03-07T09:29:02.358Z,19.27
2024-03-07T09:30:10.593Z,17.99
2024-03-07T09:31:16.888Z,18.89
2024-03-07T09:32:23.158Z,18.94
2024-03-07T09:33:29.218Z,19.15
2024-03-07T09:34:32.508Z,19.20
2024-03-07T09:35:35.448Z,19.26
2024-03-07T09:36:38.364Z,19.58
2024-03-07T09:37:43.918Z,20.38
2024-03-07T09:38:47.043Z,20.61
2024-03-07T09:39:50.294Z,19.81
2024-03-07T09:40:53.918Z,20.38
2024-03-07T09:41:57.766Z,21.63
2024-03-07T09:43:02.110Z,19.98
2024-03-07T09:44:06.499Z,20.35
2024-03-07T09:45:15.847Z,20.20
2024-03-07T09:46:20.864Z,19.98
2024-03-07T09:47:24.151Z,19.66
2024-03-07T09:48:29.269Z,19.40
2024-03-07T09:49:37.140Z,20.19
2024-03-07T09:50:43.238Z,19.52
2024-03-07T09:51:55.736Z,19.09
2024-03-07T09:53:01.259Z,20.01
2024-03-07T09:54:04.792Z,18.84
2024-03-07T09:55:09.498Z,18.27
2024-03-07T09:56:15.119Z,18.08
2024-03-07T09:57:18.815Z,17.25
2024-03-07T09:58:22.805Z,17.74
2024-03-07T09:59:28.891Z,17.31
2024-03-07T10:00:33.785Z,17.12
2024-03-07T10:01:38.891Z,18.32
2024-03-07T10:02:45.711Z,17.50
2024-03-07T10:03:54.065Z,17.86
2024-03-07T10:04:59.603Z,17.25
2024-03-07T10:06:02.560Z,17.08
2024-03-07T10:07:05.598Z,17.05
2024-03-07T10:08:09.164Z,18.37
2024-03-07T10:09:16.255Z,18.43
2024-03-07T10:10:20.583Z,18.89
2024-03-07T10:11:25.782Z,18.50
2024-03-07T10:12:28.900Z,18.77
2024-03-07T10:13:31.913Z,17.77
2024-03-07T10:14:34.735Z,17.85
2024-03-07T10:15:38.659Z,18.49
2024-03-07T10:16:42.520Z,18.51
2024-03-07T10:17:47.727Z,19.25
2024-03-07T10:18:51.562Z,18.67
2024-03-07T10:19:55.837Z,19.18
2024-03-07T10:20:59.768Z,19.68
2024-03-07T10:22:07.688Z,19.65
2024-03-07T10:23:11.591Z,19.39
2024-03-07T10:24:15.433Z,19.33
2024-03-07T10:25:20.626Z,19.74
2024-03-07T10:26:25.022Z,18.77
2024-03-07T10:27:29.750Z,18.79
2024-03-07T10:28:34.681Z,17.89
2024-03-07T10:29:40.594Z,19.06
2024-03-07T10:30:49.062Z,18.59
2024-03-07T10:31:57.808Z,18.98
2024-03-07T10:33:08.642Z,20.03
2024-03-07T10:34:12.936Z,20.72
2024-03-07T10:35:22.626Z,19.53
2024-03-07T10:36:26.374Z,19.35
2024-03-07T10:37:29.422Z,19.38
2024-03-07T10:38:32.365Z,19.22
2024-03-07T10:39:35.295Z,21.62
2024-03-07T10:40:42.041Z,21.37
2024-03-07T10:41:50.484Z,21.60
2024-03-07T10:42:58.812Z,22.10
2024-03-07T10:44:05.193Z,20.71
2024-03-07T10:45:12.108Z,20.56
2024-03-07T10:46:19.164Z,21.54
2024-03-07T10:47:22.498Z,20.96
2024-03-07T10:48:32.833Z,21.26
2024-03-07T10:49:49.769Z,21.91
2024-03-07T10:51:07.263Z,21.65
2024-03-07T10:52:27.506Z,20.84
2024-03-07T10:53:39.592Z,20.66
2024-03-07T10:55:13.525Z,21.62
2024-03-07T10:56:48.108Z,22.11
2024-03-07T10:57:56.737Z,21.74
2024-03-07T10:59:12.636Z,22.34
2024-03-07T11:00:36.744Z,21.99
2024-03-07T11:01:52.492Z,21.38
2024-03-07T11:02:58.041Z,21.74
2024-03-07T11:04:05.360Z,21.70
2024-03-07T11:05:13.204Z,21.39
2024-03-07T11:06:17.191Z,21.97
2024-03-07T11:07:23.735Z,21.72
2024-03-07T11:08:28.072Z,21.71
2024-03-07T11:09:34.910Z,21.61
2024-03-07T11:10:39.249Z,21.73
2024-03-07T11:11:44.704Z,21.19
2024-03-07T11:12:52.202Z,20.74
2024-03-07T11:14:00.133Z,19.91
2024-03-07T11:15:07.336Z,22.04
2024-03-07T11:16:11.503Z,22.00
2024-03-07T11:17:16.195Z,22.83
2024-03-07T11:18:19.364Z,20.71
2024-03-07T11:19:37.533Z,19.25
2024-03-07T11:20:41.876Z,20.87
2024-03-07T11:21:45.035Z,19.89
2024-03-07T11:22:48.654Z,20.27
2024-03-07T11:23:54.176Z,19.97
2024-03-07T11:25:08.381Z,20.38
2024-03-07T11:26:14.870Z,19.97
2024-03-07T11:27:18.430Z,20.23
2024-03-07T11:28:30.317Z,20.11
2024-03-07T11:29:44.385Z,19.96
2024-03-07T11:30:47.726Z,18.87
2024-03-07T11:31:54.718Z,19.99
2024-03-07T11:32:59.187Z,18.87
2024-03-07T11:34:20.817Z,19.74
2024-03-07T11:35:36.851Z,19.84
2024-03-07T11:36:45.943Z,21.05
2024-03-07T11:37:50.061Z,19.43
2024-03-07T11:38:53.982Z,19.21
2024-03-07T11:39:59.201Z,19.23
2024-03-07T11:41:03.716Z,20.30
2024-03-07T11:42:07.688Z,22.40
2024-03-07T11:43:13.742Z,21.51
2024-03-07T11:44:16.806Z,18.92
2024-03-07T11:45:29.182Z,18.00
2024-03-07T11:46:33.234Z,17.78
2024-03-07T11:47:40.585Z,17.41
2024-03-07T11:48:44.250Z,18.63
2024-03-07T11:49:50.294Z,18.31
2024-03-07T11:50:56.185Z,18.07
2024-03-07T11:52:00.356Z,17.36
2024-03-07T11:53:08.006Z,16.24
2024-03-07T11:54:15.753Z,16.60
2024-03-07T11:55:20.320Z,16.85
2024-03-07T11:56:23.432Z,16.86
2024-03-07T11:57:34.181Z,16.34
2024-03-07T11:58:42.978Z,17.58
2024-03-07T11:59:53.783Z,18.06
2024-03-07T12:00:59.576Z,18.03
2024-03-07T12:02:02.664Z,17.52
2024-03-07T12:03:08.308Z,17.87
2024-03-07T12:04:17.083Z,17.82
2024-03-07T12:05:20.966Z,17.78
2024-03-07T12:06:23.990Z,18.56
2024-03-07T12:07:27.955Z,18.34
2024-03-07T12:08:31.026Z,18.77
2024-03-07T12:09:37.007Z,18.11
2024-03-07T12:10:47.347Z,17.40
2024-03-07T12:11:54.113Z,21.47
2024-03-07T12:12:57.849Z,20.20
2024-03-07T12:14:01.109Z,18.65
2024-03-07T12:15:10.855Z,17.69
2024-03-07T12:16:13.992Z,17.89
2024-03-07T12:17:17.514Z,18.15
2024-03-07T12:18:23.951Z,18.88
2024-03-07T12:19:28.417Z,18.40
2024-03-07T12:20:32.429Z,18.49
2024-03-07T12:21:37.622Z,18.72
2024-03-07T12:22:44.279Z,17.82
2024-03-07T12:23:47.810Z,15.81
2024-03-07T12:25:04.726Z,17.07
2024-03-07T12:26:07.696Z,15.93
2024-03-07T12:27:13.566Z,15.85
2024-03-07T12:28:19.601Z,15.37
2024-03-07T12:29:26.916Z,15.41
2024-03-07T12:30:34.057Z,15.18
2024-03-07T12:31:41.268Z,15.61
2024-03-07T12:32:50.461Z,15.36
2024-03-07T12:33:54.388Z,14.78
2024-03-07T12:34:57.831Z,15.77
2024-03-07T12:36:11.700Z,15.67
2024-03-07T12:37:17.366Z,15.47
2024-03-07T12:38:24.038Z,15.74
2024-03-07T12:39:27.342Z,15.58
2024-03-07T12:40:35.010Z,15.05
2024-03-07T12:41:37.965Z,15.62
2024-03-07T12:42:40.817Z,14.62
2024-03-07T12:43:44.883Z,14.30
2024-03-07T12:44:48.336Z,14.95
2024-03-07T12:45:53.682Z,15.01
2024-03-07T12:46:58.291Z,14.55
2024-03-07T12:48:05.597Z,13.84
2024-03-07T12:49:08.728Z,14.16
2024-03-07T12:50:12.524Z,14.43
2024-03-07T12:51:19.782Z,14.11
2024-03-07T12:52:24.636Z,14.30
2024-03-07T12:53:27.605Z,14.09
2024-03-07T12:54:30.622Z,13.37
2024-03-07T12:55:33.616Z,14.09
2024-03-07T12:56:38.419Z,13.57
2024-03-07T12:57:41.988Z,14.27
2024-03-07T12:58:47.706Z,13.55
2024-03-07T12:59:52.124Z,13.82
2024-03-07T13:00:59.563Z,14.68
2024-03-07T13:02:03.914Z,14.84
2024-03-07T13:03:07.083Z,13.49
2024-03-07T13:04:11.436Z,13.44
2024-03-07T13:05:23.524Z,13.28
2024-03-07T13:06:30.626Z,13.09
2024-03-07T13:07:33.712Z,14.33
2024-03-07T13:08:36.674Z,14.09
2024-03-07T13:09:42.000Z,14.31
2024-03-07T13:10:48.541Z,13.76
2024-03-07T13:11:55.206Z,14.33
2024-03-07T13:12:58.409Z,13.41
2024-03-07T13:14:01.410Z,13.47
2024-03-07T13:15:07.855Z,13.01
2024-03-07T13:16:12.508Z,12.85
2024-03-07T13:17:15.479Z,13.05
2024-03-07T13:18:18.926Z,13.22
2024-03-07T13:19:22.242Z,13.50
2024-03-07T13:20:27.618Z,13.46
2024-03-07T13:21:31.835Z,13.35
2024-03-07T13:22:35.023Z,12.71
2024-03-07T13:23:40.733Z,12.44
2024-03-07T13:24:45.718Z,12.66
2024-03-07T13:25:50.095Z,12.21
2024-03-07T13:26:54.716Z,12.26
2024-03-07T13:28:17.962Z,13.06
2024-03-07T13:29:25.516Z,13.81
2024-03-07T13:30:29.206Z,13.55
2024-03-07T13:31:32.393Z,13.43
2024-03-07T13:32:35.498Z,13.49
2024-03-07T13:33:39.117Z,13.09
2024-03-07T13:34:42.088Z,12.36
2024-03-07T13:35:45.067Z,12.94
2024-03-07T13:36:47.959Z,13.40
2024-03-07T13:37:51.739Z,13.43
2024-03-07T13:38:55.609Z,13.09
2024-03-07T13:40:00.250Z,13.03
2024-03-07T13:41:06.404Z,12.82
2024-03-07T13:42:12.688Z,12.27
2024-03-07T13:43:16.274Z,11.88
2024-03-07T13:44:20.886Z,12.62
2024-03-07T13:45:29.522Z,12.26
2024-03-07T13:46:33.815Z,11.61
2024-03-07T13:47:37.264Z,11.74
2024-03-07T13:48:43.472Z,12.04
2024-03-07T13:49:46.793Z,12.68
2024-03-07T13:50:59.477Z,12.07
2024-03-07T13:52:12.041Z,12.56
2024-03-07T13:53:15.095Z,12.96
2024-03-07T13:54:31.839Z,13.10
2024-03-07T13:56:02.645Z,13.24